Aviation Digital Data Service (ADDS)

Output produced by METARs form (1636 UTC 03 June 2020)
found at http://www.aviationweather.gov/metar/data/
 
METAR text: UAAA 031630Z 00000MPS 9999 FEW100 SCT200 22/08 Q1010 R05R/CLRD65 NOSIG
Conditions at: UAAA (ALMA-ATA , KZ) observed 1630 UTC 03 June 2020
Temperature: 22.0°C (72°F)
Dewpoint: 8.0°C (46°F) [RH = 41%]
Pressure (altimeter): 29.82 inches Hg (1010.0 mb)
Winds: calm
Visibility: 6 or more miles (10+ km)
Ceiling: at least 12,000 feet AGL
Clouds: few clouds at 10000 feet AGL
scattered clouds at 20000 feet AGL
Weather: no significant weather observed at this time

METAR text: UAAA 031600Z 18002MPS 9999 FEW100 SCT200 23/08 Q1010 R05R/CLRD65 NOSIG
Conditions at: UAAA (ALMA-ATA , KZ) observed 1600 UTC 03 June 2020
Temperature: 23.0°C (73°F)
Dewpoint: 8.0°C (46°F) [RH = 38%]
Pressure (altimeter): 29.82 inches Hg (1010.0 mb)
Winds: from the S (180 degrees) at 5 MPH (4 knots; 2.1 m/s)
Visibility: 6 or more miles (10+ km)
Ceiling: at least 12,000 feet AGL
Clouds: few clouds at 10000 feet AGL
scattered clouds at 20000 feet AGL
Weather: no significant weather observed at this time

METAR text: UAAA 031530Z 16002MPS 120V190 9999 FEW100 SCT200 25/08 Q1009 R05R/CLRD65 NOSIG
Conditions at: UAAA (ALMA-ATA , KZ) observed 1530 UTC 03 June 2020
Temperature: 25.0°C (77°F)
Dewpoint: 8.0°C (46°F) [RH = 34%]
Pressure (altimeter): 29.79 inches Hg (1009.0 mb)
Winds: from the SSE (160 degrees) at 5 MPH (4 knots; 2.1 m/s)
Visibility: 6 or more miles (10+ km)
Ceiling: at least 12,000 feet AGL
Clouds: few clouds at 10000 feet AGL
scattered clouds at 20000 feet AGL
Weather: no significant weather observed at this time

METAR text: UAAA 031500Z VRB01MPS 9999 SCT100 BKN200 26/08 Q1009 R05R/CLRD65 NOSIG
Conditions at: UAAA (ALMA-ATA , KZ) observed 1500 UTC 03 June 2020
Temperature: 26.0°C (79°F)
Dewpoint: 8.0°C (46°F) [RH = 32%]
Pressure (altimeter): 29.79 inches Hg (1009.0 mb)
Winds: variable direction winds at 2 MPH (2 knots; 1.0 m/s)
Visibility: 6 or more miles (10+ km)
Ceiling: 20000 feet AGL
Clouds: scattered clouds at 10000 feet AGL
broken clouds at 20000 feet AGL
Weather: no significant weather observed at this time

METAR text: UAAA 031430Z 20002MPS 9999 SCT100 BKN200 27/09 Q1008 R05R/CLRD65 NOSIG
Conditions at: UAAA (ALMA-ATA , KZ) observed 1430 UTC 03 June 2020
Temperature: 27.0°C (81°F)
Dewpoint: 9.0°C (48°F) [RH = 32%]
Pressure (altimeter): 29.76 inches Hg (1008.0 mb)
Winds: from the SSW (200 degrees) at 5 MPH (4 knots; 2.1 m/s)
Visibility: 6 or more miles (10+ km)
Ceiling: 20000 feet AGL
Clouds: scattered clouds at 10000 feet AGL
broken clouds at 20000 feet AGL
Weather: no significant weather observed at this time

METAR text: UAAA 031400Z 19001MPS 9999 SCT100 BKN200 29/09 Q1008 R05R/CLRD65 NOSIG
Conditions at: UAAA (ALMA-ATA , KZ) observed 1400 UTC 03 June 2020
Temperature: 29.0°C (84°F)
Dewpoint: 9.0°C (48°F) [RH = 29%]
Pressure (altimeter): 29.76 inches Hg (1008.0 mb)
Winds: from the S (190 degrees) at 2 MPH (2 knots; 1.0 m/s)
Visibility: 6 or more miles (10+ km)
Ceiling: 20000 feet AGL
Clouds: scattered clouds at 10000 feet AGL
broken clouds at 20000 feet AGL
Weather: no significant weather observed at this time

METAR text: UAAA 031330Z 16002MPS 9999 FEW050CB SCT100 BKN200 31/07 Q1008 R05R/CLRD65 NOSIG
Conditions at: UAAA (ALMA-ATA , KZ) observed 1330 UTC 03 June 2020
Temperature: 31.0°C (88°F)
Dewpoint: 7.0°C (45°F) [RH = 22%]
Pressure (altimeter): 29.76 inches Hg (1008.0 mb)
Winds: from the SSE (160 degrees) at 5 MPH (4 knots; 2.1 m/s)
Visibility: 6 or more miles (10+ km)
Ceiling: 20000 feet AGL
Clouds: few clouds at 5000 feet AGL
scattered clouds at 10000 feet AGL
broken clouds at 20000 feet AGL
Weather: no significant weather observed at this time

METAR text: UAAA 031300Z 14002MPS 9999 FEW050 SCT100 BKN200 32/05 Q1008 R05R/CLRD65 NOSIG
Conditions at: UAAA (ALMA-ATA , KZ) observed 1300 UTC 03 June 2020
Temperature: 32.0°C (90°F)
Dewpoint: 5.0°C (41°F) [RH = 18%]
Pressure (altimeter): 29.76 inches Hg (1008.0 mb)
Winds: from the SE (140 degrees) at 5 MPH (4 knots; 2.1 m/s)
Visibility: 6 or more miles (10+ km)
Ceiling: 20000 feet AGL
Clouds: few clouds at 5000 feet AGL
scattered clouds at 10000 feet AGL
broken clouds at 20000 feet AGL
Weather: no significant weather observed at this time

METAR text: UAAA 031230Z 14002MPS 090V160 9999 FEW050CB SCT100 BKN200 32/03 Q1008 R05R/CLRD65 NOSIG
Conditions at: UAAA (ALMA-ATA , KZ) observed 1230 UTC 03 June 2020
Temperature: 32.0°C (90°F)
Dewpoint: 3.0°C (37°F) [RH = 16%]
Pressure (altimeter): 29.76 inches Hg (1008.0 mb)
Winds: from the SE (140 degrees) at 5 MPH (4 knots; 2.1 m/s)
Visibility: 6 or more miles (10+ km)
Ceiling: 20000 feet AGL
Clouds: few clouds at 5000 feet AGL
scattered clouds at 10000 feet AGL
broken clouds at 20000 feet AGL
Weather: no significant weather observed at this time

METAR text: UAAA 031200Z 15002MPS 120V180 9999 FEW050CB SCT100 BKN200 33/06 Q1008 R05R/CLRD65 NOSIG
Conditions at: UAAA (ALMA-ATA , KZ) observed 1200 UTC 03 June 2020
Temperature: 33.0°C (91°F)
Dewpoint: 6.0°C (43°F) [RH = 19%]
Pressure (altimeter): 29.76 inches Hg (1008.0 mb)
Winds: from the SSE (150 degrees) at 5 MPH (4 knots; 2.1 m/s)
Visibility: 6 or more miles (10+ km)
Ceiling: 20000 feet AGL
Clouds: few clouds at 5000 feet AGL
scattered clouds at 10000 feet AGL
broken clouds at 20000 feet AGL
Weather: no significant weather observed at this time

METAR text: UAAA 031130Z 14003MPS 100V180 9999 FEW050CB SCT100 BKN200 33/04 Q1008 R05R/CLRD65 NOSIG
Conditions at: UAAA (ALMA-ATA , KZ) observed 1130 UTC 03 June 2020
Temperature: 33.0°C (91°F)
Dewpoint: 4.0°C (39°F) [RH = 16%]
Pressure (altimeter): 29.76 inches Hg (1008.0 mb)
Winds: from the SE (140 degrees) at 7 MPH (6 knots; 3.1 m/s)
Visibility: 6 or more miles (10+ km)
Ceiling: 20000 feet AGL
Clouds: few clouds at 5000 feet AGL
scattered clouds at 10000 feet AGL
broken clouds at 20000 feet AGL
Weather: no significant weather observed at this time

METAR text: UAAA 031100Z 12002MPS 060V170 9999 FEW050CB SCT100 BKN200 34/02 Q1008 R05R/CLRD65 NOSIG
Conditions at: UAAA (ALMA-ATA , KZ) observed 1100 UTC 03 June 2020
Temperature: 34.0°C (93°F)
Dewpoint: 2.0°C (36°F) [RH = 13%]
Pressure (altimeter): 29.76 inches Hg (1008.0 mb)
Winds: from the ESE (120 degrees) at 5 MPH (4 knots; 2.1 m/s)
Visibility: 6 or more miles (10+ km)
Ceiling: 20000 feet AGL
Clouds: few clouds at 5000 feet AGL
scattered clouds at 10000 feet AGL
broken clouds at 20000 feet AGL
Weather: no significant weather observed at this time

METAR text: UAAA 031030Z 06003MPS 020V120 9999 FEW050CB SCT100 BKN200 34/04 Q1009 R05R/CLRD65 NOSIG
Conditions at: UAAA (ALMA-ATA , KZ) observed 1030 UTC 03 June 2020
Temperature: 34.0°C (93°F)
Dewpoint: 4.0°C (39°F) [RH = 15%]
Pressure (altimeter): 29.79 inches Hg (1009.0 mb)
Winds: from the ENE (60 degrees) at 7 MPH (6 knots; 3.1 m/s)
Visibility: 6 or more miles (10+ km)
Ceiling: 20000 feet AGL
Clouds: few clouds at 5000 feet AGL
scattered clouds at 10000 feet AGL
broken clouds at 20000 feet AGL
Weather: no significant weather observed at this time

METAR text: UAAA 031000Z VRB01MPS 9999 FEW050CB SCT100 BKN200 34/04 Q1009 R05R/CLRD65 NOSIG
Conditions at: UAAA (ALMA-ATA , KZ) observed 1000 UTC 03 June 2020
Temperature: 34.0°C (93°F)
Dewpoint: 4.0°C (39°F) [RH = 15%]
Pressure (altimeter): 29.79 inches Hg (1009.0 mb)
Winds: variable direction winds at 2 MPH (2 knots; 1.0 m/s)
Visibility: 6 or more miles (10+ km)
Ceiling: 20000 feet AGL
Clouds: few clouds at 5000 feet AGL
scattered clouds at 10000 feet AGL
broken clouds at 20000 feet AGL
Weather: no significant weather observed at this time

METAR text: UAAA 030930Z 11003MPS 070V180 9999 FEW050CB SCT100 BKN200 34/04 Q1009 R05R/CLRD65 NOSIG
Conditions at: UAAA (ALMA-ATA , KZ) observed 0930 UTC 03 June 2020
Temperature: 34.0°C (93°F)
Dewpoint: 4.0°C (39°F) [RH = 15%]
Pressure (altimeter): 29.79 inches Hg (1009.0 mb)
Winds: from the ESE (110 degrees) at 7 MPH (6 knots; 3.1 m/s)
Visibility: 6 or more miles (10+ km)
Ceiling: 20000 feet AGL
Clouds: few clouds at 5000 feet AGL
scattered clouds at 10000 feet AGL
broken clouds at 20000 feet AGL
Weather: no significant weather observed at this time

METAR text: UAAA 030900Z 17002MPS 090V230 9999 FEW050CB SCT100 BKN200 34/02 Q1009 R05R/CLRD65 NOSIG
Conditions at: UAAA (ALMA-ATA , KZ) observed 0900 UTC 03 June 2020
Temperature: 34.0°C (93°F)
Dewpoint: 2.0°C (36°F) [RH = 13%]
Pressure (altimeter): 29.79 inches Hg (1009.0 mb)
Winds: from the S (170 degrees) at 5 MPH (4 knots; 2.1 m/s)
Visibility: 6 or more miles (10+ km)
Ceiling: 20000 feet AGL
Clouds: few clouds at 5000 feet AGL
scattered clouds at 10000 feet AGL
broken clouds at 20000 feet AGL
Weather: no significant weather observed at this time

METAR text: UAAA 030830Z 17003MPS 110V250 9999 FEW050CB SCT100 BKN200 33/03 Q1009 R23L/CLRD65 NOSIG
Conditions at: UAAA (ALMA-ATA , KZ) observed 0830 UTC 03 June 2020
Temperature: 33.0°C (91°F)
Dewpoint: 3.0°C (37°F) [RH = 15%]
Pressure (altimeter): 29.79 inches Hg (1009.0 mb)
Winds: from the S (170 degrees) at 7 MPH (6 knots; 3.1 m/s)
Visibility: 6 or more miles (10+ km)
Ceiling: 20000 feet AGL
Clouds: few clouds at 5000 feet AGL
scattered clouds at 10000 feet AGL
broken clouds at 20000 feet AGL
Weather: no significant weather observed at this time

METAR text: UAAA 030800Z 27002MPS 9999 FEW050CB SCT100 BKN200 33/04 Q1010 R23L/CLRD65 NOSIG
Conditions at: UAAA (ALMA-ATA , KZ) observed 0800 UTC 03 June 2020
Temperature: 33.0°C (91°F)
Dewpoint: 4.0°C (39°F) [RH = 16%]
Pressure (altimeter): 29.82 inches Hg (1010.0 mb)
Winds: from the W (270 degrees) at 5 MPH (4 knots; 2.1 m/s)
Visibility: 6 or more miles (10+ km)
Ceiling: 20000 feet AGL
Clouds: few clouds at 5000 feet AGL
scattered clouds at 10000 feet AGL
broken clouds at 20000 feet AGL
Weather: no significant weather observed at this time

METAR text: UAAA 030730Z 20003MPS 140V270 9999 FEW050CB SCT100 BKN200 33/06 Q1010 R23L/CLRD65 NOSIG
Conditions at: UAAA (ALMA-ATA , KZ) observed 0730 UTC 03 June 2020
Temperature: 33.0°C (91°F)
Dewpoint: 6.0°C (43°F) [RH = 19%]
Pressure (altimeter): 29.82 inches Hg (1010.0 mb)
Winds: from the SSW (200 degrees) at 7 MPH (6 knots; 3.1 m/s)
Visibility: 6 or more miles (10+ km)
Ceiling: 20000 feet AGL
Clouds: few clouds at 5000 feet AGL
scattered clouds at 10000 feet AGL
broken clouds at 20000 feet AGL
Weather: no significant weather observed at this time

METAR text: UAAA 030700Z VRB01MPS 9999 FEW050 SCT100 BKN200 30/08 Q1010 R23L/CLRD65 NOSIG
Conditions at: UAAA (ALMA-ATA , KZ) observed 0700 UTC 03 June 2020
Temperature: 30.0°C (86°F)
Dewpoint: 8.0°C (46°F) [RH = 25%]
Pressure (altimeter): 29.82 inches Hg (1010.0 mb)
Winds: variable direction winds at 2 MPH (2 knots; 1.0 m/s)
Visibility: 6 or more miles (10+ km)
Ceiling: 20000 feet AGL
Clouds: few clouds at 5000 feet AGL
scattered clouds at 10000 feet AGL
broken clouds at 20000 feet AGL
Weather: no significant weather observed at this time

METAR text: UAAA 030630Z 21003MPS 160V260 9999 FEW050 SCT100 BKN200 31/07 Q1011 R05R/CLRD65 NOSIG
Conditions at: UAAA (ALMA-ATA , KZ) observed 0630 UTC 03 June 2020
Temperature: 31.0°C (88°F)
Dewpoint: 7.0°C (45°F) [RH = 22%]
Pressure (altimeter): 29.85 inches Hg (1011.0 mb)
Winds: from the SSW (210 degrees) at 7 MPH (6 knots; 3.1 m/s)
Visibility: 6 or more miles (10+ km)
Ceiling: 20000 feet AGL
Clouds: few clouds at 5000 feet AGL
scattered clouds at 10000 feet AGL
broken clouds at 20000 feet AGL
Weather: no significant weather observed at this time

METAR text: UAAA 030600Z 25003MPS 170V310 9999 FEW050 SCT100 BKN200 31/05 Q1011 R05R/CLRD65 NOSIG
Conditions at: UAAA (ALMA-ATA , KZ) observed 0600 UTC 03 June 2020
Temperature: 31.0°C (88°F)
Dewpoint: 5.0°C (41°F) [RH = 19%]
Pressure (altimeter): 29.85 inches Hg (1011.0 mb)
Winds: from the WSW (250 degrees) at 7 MPH (6 knots; 3.1 m/s)
Visibility: 6 or more miles (10+ km)
Ceiling: 20000 feet AGL
Clouds: few clouds at 5000 feet AGL
scattered clouds at 10000 feet AGL
broken clouds at 20000 feet AGL
Weather: no significant weather observed at this time

METAR text: UAAA 030530Z 25003MPS 200V300 9999 FEW050 SCT100 BKN200 29/05 Q1011 R05R/CLRD65 NOSIG
Conditions at: UAAA (ALMA-ATA , KZ) observed 0530 UTC 03 June 2020
Temperature: 29.0°C (84°F)
Dewpoint: 5.0°C (41°F) [RH = 22%]
Pressure (altimeter): 29.85 inches Hg (1011.0 mb)
Winds: from the WSW (250 degrees) at 7 MPH (6 knots; 3.1 m/s)
Visibility: 6 or more miles (10+ km)
Ceiling: 20000 feet AGL
Clouds: few clouds at 5000 feet AGL
scattered clouds at 10000 feet AGL
broken clouds at 20000 feet AGL
Weather: no significant weather observed at this time

METAR text: UAAA 030500Z 27003MPS 220V340 9999 FEW050 SCT100 BKN200 28/08 Q1011 R05R/CLRD65 NOSIG
Conditions at: UAAA (ALMA-ATA , KZ) observed 0500 UTC 03 June 2020
Temperature: 28.0°C (82°F)
Dewpoint: 8.0°C (46°F) [RH = 28%]
Pressure (altimeter): 29.85 inches Hg (1011.0 mb)
Winds: from the W (270 degrees) at 7 MPH (6 knots; 3.1 m/s)
Visibility: 6 or more miles (10+ km)
Ceiling: 20000 feet AGL
Clouds: few clouds at 5000 feet AGL
scattered clouds at 10000 feet AGL
broken clouds at 20000 feet AGL
Weather: no significant weather observed at this time

METAR text: UAAA 030430Z 27004MPS 9999 FEW050 SCT100 BKN200 27/08 Q1011 R05R/CLRD65 NOSIG
Conditions at: UAAA (ALMA-ATA , KZ) observed 0430 UTC 03 June 2020
Temperature: 27.0°C (81°F)
Dewpoint: 8.0°C (46°F) [RH = 30%]
Pressure (altimeter): 29.85 inches Hg (1011.0 mb)
Winds: from the W (270 degrees) at 9 MPH (8 knots; 4.1 m/s)
Visibility: 6 or more miles (10+ km)
Ceiling: 20000 feet AGL
Clouds: few clouds at 5000 feet AGL
scattered clouds at 10000 feet AGL
broken clouds at 20000 feet AGL
Weather: no significant weather observed at this time

METAR text: UAAA 030400Z 26004MPS 9999 FEW100 SCT200 27/09 Q1011 R05R/CLRD65 NOSIG
Conditions at: UAAA (ALMA-ATA , KZ) observed 0400 UTC 03 June 2020
Temperature: 27.0°C (81°F)
Dewpoint: 9.0°C (48°F) [RH = 32%]
Pressure (altimeter): 29.85 inches Hg (1011.0 mb)
Winds: from the W (260 degrees) at 9 MPH (8 knots; 4.1 m/s)
Visibility: 6 or more miles (10+ km)
Ceiling: at least 12,000 feet AGL
Clouds: few clouds at 10000 feet AGL
scattered clouds at 20000 feet AGL
Weather: no significant weather observed at this time

METAR text: UAAA 030330Z 25003MPS 200V310 9999 FEW100 SCT200 26/08 Q1011 R05R/CLRD65 NOSIG
Conditions at: UAAA (ALMA-ATA , KZ) observed 0330 UTC 03 June 2020
Temperature: 26.0°C (79°F)
Dewpoint: 8.0°C (46°F) [RH = 32%]
Pressure (altimeter): 29.85 inches Hg (1011.0 mb)
Winds: from the WSW (250 degrees) at 7 MPH (6 knots; 3.1 m/s)
Visibility: 6 or more miles (10+ km)
Ceiling: at least 12,000 feet AGL
Clouds: few clouds at 10000 feet AGL
scattered clouds at 20000 feet AGL
Weather: no significant weather observed at this time

METAR text: UAAA 030300Z 19002MPS 150V230 9999 FEW100 SCT200 25/10 Q1011 R05R/CLRD65 NOSIG
Conditions at: UAAA (ALMA-ATA , KZ) observed 0300 UTC 03 June 2020
Temperature: 25.0°C (77°F)
Dewpoint: 10.0°C (50°F) [RH = 39%]
Pressure (altimeter): 29.85 inches Hg (1011.0 mb)
Winds: from the S (190 degrees) at 5 MPH (4 knots; 2.1 m/s)
Visibility: 6 or more miles (10+ km)
Ceiling: at least 12,000 feet AGL
Clouds: few clouds at 10000 feet AGL
scattered clouds at 20000 feet AGL
Weather: no significant weather observed at this time

METAR text: UAAA 030230Z 23002MPS 190V270 9999 FEW100 BKN200 24/10 Q1011 R05R/CLRD65 NOSIG
Conditions at: UAAA (ALMA-ATA , KZ) observed 0230 UTC 03 June 2020
Temperature: 24.0°C (75°F)
Dewpoint: 10.0°C (50°F) [RH = 41%]
Pressure (altimeter): 29.85 inches Hg (1011.0 mb)
Winds: from the SW (230 degrees) at 5 MPH (4 knots; 2.1 m/s)
Visibility: 6 or more miles (10+ km)
Ceiling: 20000 feet AGL
Clouds: few clouds at 10000 feet AGL
broken clouds at 20000 feet AGL
Weather: no significant weather observed at this time

METAR text: UAAA 030200Z 24002MPS 160V270 9999 SCT100 BKN200 22/11 Q1011 R05R/CLRD65 NOSIG
Conditions at: UAAA (ALMA-ATA , KZ) observed 0200 UTC 03 June 2020
Temperature: 22.0°C (72°F)
Dewpoint: 11.0°C (52°F) [RH = 50%]
Pressure (altimeter): 29.85 inches Hg (1011.0 mb)
Winds: from the WSW (240 degrees) at 5 MPH (4 knots; 2.1 m/s)
Visibility: 6 or more miles (10+ km)
Ceiling: 20000 feet AGL
Clouds: scattered clouds at 10000 feet AGL
broken clouds at 20000 feet AGL
Weather: no significant weather observed at this time

METAR text: UAAA 030130Z VRB01MPS 9999 BKN100 21/10 Q1011 R05R/CLRD65 NOSIG
Conditions at: UAAA (ALMA-ATA , KZ) observed 0130 UTC 03 June 2020
Temperature: 21.0°C (70°F)
Dewpoint: 10.0°C (50°F) [RH = 49%]
Pressure (altimeter): 29.85 inches Hg (1011.0 mb)
Winds: variable direction winds at 2 MPH (2 knots; 1.0 m/s)
Visibility: 6 or more miles (10+ km)
Ceiling: 10000 feet AGL
Clouds: broken clouds at 10000 feet AGL
Weather: no significant weather observed at this time

METAR text: UAAA 030100Z 34002MPS 250V020 9999 BKN100 20/10 Q1011 R05R/CLRD65 NOSIG
Conditions at: UAAA (ALMA-ATA , KZ) observed 0100 UTC 03 June 2020
Temperature: 20.0°C (68°F)
Dewpoint: 10.0°C (50°F) [RH = 53%]
Pressure (altimeter): 29.85 inches Hg (1011.0 mb)
Winds: from the NNW (340 degrees) at 5 MPH (4 knots; 2.1 m/s)
Visibility: 6 or more miles (10+ km)
Ceiling: 10000 feet AGL
Clouds: broken clouds at 10000 feet AGL
Weather: no significant weather observed at this time

METAR text: UAAA 030030Z VRB01MPS 9999 BKN100 20/07 Q1011 R23L/CLRD65 NOSIG
Conditions at: UAAA (ALMA-ATA , KZ) observed 0030 UTC 03 June 2020
Temperature: 20.0°C (68°F)
Dewpoint: 7.0°C (45°F) [RH = 43%]
Pressure (altimeter): 29.85 inches Hg (1011.0 mb)
Winds: variable direction winds at 2 MPH (2 knots; 1.0 m/s)
Visibility: 6 or more miles (10+ km)
Ceiling: 10000 feet AGL
Clouds: broken clouds at 10000 feet AGL
Weather: no significant weather observed at this time

METAR text: UAAA 030000Z 17002MPS 150V230 9999 BKN100 21/05 Q1010 R23L/CLRD65 NOSIG
Conditions at: UAAA (ALMA-ATA , KZ) observed 0000 UTC 03 June 2020
Temperature: 21.0°C (70°F)
Dewpoint: 5.0°C (41°F) [RH = 35%]
Pressure (altimeter): 29.82 inches Hg (1010.0 mb)
Winds: from the S (170 degrees) at 5 MPH (4 knots; 2.1 m/s)
Visibility: 6 or more miles (10+ km)
Ceiling: 10000 feet AGL
Clouds: broken clouds at 10000 feet AGL
Weather: no significant weather observed at this time

METAR text: UAAA 022330Z 17002MPS 9999 BKN100 21/05 Q1010 R23L/CLRD65 NOSIG
Conditions at: UAAA (ALMA-ATA , KZ) observed 2330 UTC 02 June 2020
Temperature: 21.0°C (70°F)
Dewpoint: 5.0°C (41°F) [RH = 35%]
Pressure (altimeter): 29.82 inches Hg (1010.0 mb)
Winds: from the S (170 degrees) at 5 MPH (4 knots; 2.1 m/s)
Visibility: 6 or more miles (10+ km)
Ceiling: 10000 feet AGL
Clouds: broken clouds at 10000 feet AGL
Weather: no significant weather observed at this time

METAR text: UAAA 022300Z 17003MPS 9999 FEW050 BKN100 21/05 Q1010 R23L/CLRD65 NOSIG
Conditions at: UAAA (ALMA-ATA , KZ) observed 2300 UTC 02 June 2020
Temperature: 21.0°C (70°F)
Dewpoint: 5.0°C (41°F) [RH = 35%]
Pressure (altimeter): 29.82 inches Hg (1010.0 mb)
Winds: from the S (170 degrees) at 7 MPH (6 knots; 3.1 m/s)
Visibility: 6 or more miles (10+ km)
Ceiling: 10000 feet AGL
Clouds: few clouds at 5000 feet AGL
broken clouds at 10000 feet AGL
Weather: no significant weather observed at this time

METAR text: UAAA 022230Z 19002MPS 160V250 9999 FEW050 OVC100 22/05 Q1010 R23L/CLRD65 NOSIG
Conditions at: UAAA (ALMA-ATA , KZ) observed 2230 UTC 02 June 2020
Temperature: 22.0°C (72°F)
Dewpoint: 5.0°C (41°F) [RH = 33%]
Pressure (altimeter): 29.82 inches Hg (1010.0 mb)
Winds: from the S (190 degrees) at 5 MPH (4 knots; 2.1 m/s)
Visibility: 6 or more miles (10+ km)
Ceiling: 10000 feet AGL
Clouds: few clouds at 5000 feet AGL
overcast cloud deck at 10000 feet AGL
Weather: no significant weather observed at this time

METAR text: UAAA 022200Z 20002MPS 170V230 9999 FEW050 OVC100 22/04 Q1010 R23L/CLRD65 NOSIG
Conditions at: UAAA (ALMA-ATA , KZ) observed 2200 UTC 02 June 2020
Temperature: 22.0°C (72°F)
Dewpoint: 4.0°C (39°F) [RH = 31%]
Pressure (altimeter): 29.82 inches Hg (1010.0 mb)
Winds: from the SSW (200 degrees) at 5 MPH (4 knots; 2.1 m/s)
Visibility: 6 or more miles (10+ km)
Ceiling: 10000 feet AGL
Clouds: few clouds at 5000 feet AGL
overcast cloud deck at 10000 feet AGL
Weather: no significant weather observed at this time

METAR text: UAAA 022130Z 24002MPS 200V270 9999 FEW050 OVC100 20/07 Q1010 R23L/CLRD65 NOSIG
Conditions at: UAAA (ALMA-ATA , KZ) observed 2130 UTC 02 June 2020
Temperature: 20.0°C (68°F)
Dewpoint: 7.0°C (45°F) [RH = 43%]
Pressure (altimeter): 29.82 inches Hg (1010.0 mb)
Winds: from the WSW (240 degrees) at 5 MPH (4 knots; 2.1 m/s)
Visibility: 6 or more miles (10+ km)
Ceiling: 10000 feet AGL
Clouds: few clouds at 5000 feet AGL
overcast cloud deck at 10000 feet AGL
Weather: no significant weather observed at this time

METAR text: UAAA 022100Z 16002MPS 9999 FEW050 OVC100 22/05 Q1010 R23L/CLRD65 NOSIG
Conditions at: UAAA (ALMA-ATA , KZ) observed 2100 UTC 02 June 2020
Temperature: 22.0°C (72°F)
Dewpoint: 5.0°C (41°F) [RH = 33%]
Pressure (altimeter): 29.82 inches Hg (1010.0 mb)
Winds: from the SSE (160 degrees) at 5 MPH (4 knots; 2.1 m/s)
Visibility: 6 or more miles (10+ km)
Ceiling: 10000 feet AGL
Clouds: few clouds at 5000 feet AGL
overcast cloud deck at 10000 feet AGL
Weather: no significant weather observed at this time

METAR text: UAAA 022030Z 15002MPS 100V190 9999 FEW050 OVC100 22/05 Q1011 R23L/CLRD65 NOSIG
Conditions at: UAAA (ALMA-ATA , KZ) observed 2030 UTC 02 June 2020
Temperature: 22.0°C (72°F)
Dewpoint: 5.0°C (41°F) [RH = 33%]
Pressure (altimeter): 29.85 inches Hg (1011.0 mb)
Winds: from the SSE (150 degrees) at 5 MPH (4 knots; 2.1 m/s)
Visibility: 6 or more miles (10+ km)
Ceiling: 10000 feet AGL
Clouds: few clouds at 5000 feet AGL
overcast cloud deck at 10000 feet AGL
Weather: no significant weather observed at this time

METAR text: UAAA 022000Z 17003MPS 9999 FEW050 OVC100 23/04 Q1011 R23L/CLRD65 NOSIG
Conditions at: UAAA (ALMA-ATA , KZ) observed 2000 UTC 02 June 2020
Temperature: 23.0°C (73°F)
Dewpoint: 4.0°C (39°F) [RH = 29%]
Pressure (altimeter): 29.85 inches Hg (1011.0 mb)
Winds: from the S (170 degrees) at 7 MPH (6 knots; 3.1 m/s)
Visibility: 6 or more miles (10+ km)
Ceiling: 10000 feet AGL
Clouds: few clouds at 5000 feet AGL
overcast cloud deck at 10000 feet AGL
Weather: no significant weather observed at this time

METAR text: UAAA 021930Z 16003MPS 9999 FEW050 OVC100 22/06 Q1011 R23L/CLRD65 NOSIG
Conditions at: UAAA (ALMA-ATA , KZ) observed 1930 UTC 02 June 2020
Temperature: 22.0°C (72°F)
Dewpoint: 6.0°C (43°F) [RH = 35%]
Pressure (altimeter): 29.85 inches Hg (1011.0 mb)
Winds: from the SSE (160 degrees) at 7 MPH (6 knots; 3.1 m/s)
Visibility: 6 or more miles (10+ km)
Ceiling: 10000 feet AGL
Clouds: few clouds at 5000 feet AGL
overcast cloud deck at 10000 feet AGL
Weather: no significant weather observed at this time

METAR text: UAAA 021900Z 17002MPS 9999 FEW050 OVC100 22/08 Q1011 R23L/CLRD65 NOSIG
Conditions at: UAAA (ALMA-ATA , KZ) observed 1900 UTC 02 June 2020
Temperature: 22.0°C (72°F)
Dewpoint: 8.0°C (46°F) [RH = 41%]
Pressure (altimeter): 29.85 inches Hg (1011.0 mb)
Winds: from the S (170 degrees) at 5 MPH (4 knots; 2.1 m/s)
Visibility: 6 or more miles (10+ km)
Ceiling: 10000 feet AGL
Clouds: few clouds at 5000 feet AGL
overcast cloud deck at 10000 feet AGL
Weather: no significant weather observed at this time

METAR text: UAAA 021830Z 17002MPS 9999 BKN100 22/08 Q1011 R23L/CLRD65 NOSIG
Conditions at: UAAA (ALMA-ATA , KZ) observed 1830 UTC 02 June 2020
Temperature: 22.0°C (72°F)
Dewpoint: 8.0°C (46°F) [RH = 41%]
Pressure (altimeter): 29.85 inches Hg (1011.0 mb)
Winds: from the S (170 degrees) at 5 MPH (4 knots; 2.1 m/s)
Visibility: 6 or more miles (10+ km)
Ceiling: 10000 feet AGL
Clouds: broken clouds at 10000 feet AGL
Weather: no significant weather observed at this time

METAR text: UAAA 021800Z 17002MPS 9999 BKN100 22/08 Q1011 R23L/CLRD65 NOSIG
Conditions at: UAAA (ALMA-ATA , KZ) observed 1800 UTC 02 June 2020
Temperature: 22.0°C (72°F)
Dewpoint: 8.0°C (46°F) [RH = 41%]
Pressure (altimeter): 29.85 inches Hg (1011.0 mb)
Winds: from the S (170 degrees) at 5 MPH (4 knots; 2.1 m/s)
Visibility: 6 or more miles (10+ km)
Ceiling: 10000 feet AGL
Clouds: broken clouds at 10000 feet AGL
Weather: no significant weather observed at this time

METAR text: UAAA 021730Z 19002MPS 9999 BKN100 23/07 Q1011 R23L/CLRD65 NOSIG
Conditions at: UAAA (ALMA-ATA , KZ) observed 1730 UTC 02 June 2020
Temperature: 23.0°C (73°F)
Dewpoint: 7.0°C (45°F) [RH = 36%]
Pressure (altimeter): 29.85 inches Hg (1011.0 mb)
Winds: from the S (190 degrees) at 5 MPH (4 knots; 2.1 m/s)
Visibility: 6 or more miles (10+ km)
Ceiling: 10000 feet AGL
Clouds: broken clouds at 10000 feet AGL
Weather: no significant weather observed at this time

METAR text: UAAA 021700Z 20002MPS 9999 BKN100 23/06 Q1011 R23L/CLRD65 NOSIG
Conditions at: UAAA (ALMA-ATA , KZ) observed 1700 UTC 02 June 2020
Temperature: 23.0°C (73°F)
Dewpoint: 6.0°C (43°F) [RH = 33%]
Pressure (altimeter): 29.85 inches Hg (1011.0 mb)
Winds: from the SSW (200 degrees) at 5 MPH (4 knots; 2.1 m/s)
Visibility: 6 or more miles (10+ km)
Ceiling: 10000 feet AGL
Clouds: broken clouds at 10000 feet AGL
Weather: no significant weather observed at this time

METAR text: UAAA 021630Z 24003MPS 9999 BKN100 23/06 Q1011 R23L/CLRD65 NOSIG
Conditions at: UAAA (ALMA-ATA , KZ) observed 1630 UTC 02 June 2020
Temperature: 23.0°C (73°F)
Dewpoint: 6.0°C (43°F) [RH = 33%]
Pressure (altimeter): 29.85 inches Hg (1011.0 mb)
Winds: from the WSW (240 degrees) at 7 MPH (6 knots; 3.1 m/s)
Visibility: 6 or more miles (10+ km)
Ceiling: 10000 feet AGL
Clouds: broken clouds at 10000 feet AGL
Weather: no significant weather observed at this time

METAR text: UAAA 021600Z 19002MPS 9999 BKN100 24/05 Q1011 R23L/CLRD65 NOSIG
Conditions at: UAAA (ALMA-ATA , KZ) observed 1600 UTC 02 June 2020
Temperature: 24.0°C (75°F)
Dewpoint: 5.0°C (41°F) [RH = 29%]
Pressure (altimeter): 29.85 inches Hg (1011.0 mb)
Winds: from the S (190 degrees) at 5 MPH (4 knots; 2.1 m/s)
Visibility: 6 or more miles (10+ km)
Ceiling: 10000 feet AGL
Clouds: broken clouds at 10000 feet AGL
Weather: no significant weather observed at this time

METAR text: UAAA 021530Z 19002MPS 9999 BKN100 24/06 Q1011 R23L/CLRD65 NOSIG
Conditions at: UAAA (ALMA-ATA , KZ) observed 1530 UTC 02 June 2020
Temperature: 24.0°C (75°F)
Dewpoint: 6.0°C (43°F) [RH = 31%]
Pressure (altimeter): 29.85 inches Hg (1011.0 mb)
Winds: from the S (190 degrees) at 5 MPH (4 knots; 2.1 m/s)
Visibility: 6 or more miles (10+ km)
Ceiling: 10000 feet AGL
Clouds: broken clouds at 10000 feet AGL
Weather: no significant weather observed at this time

METAR text: UAAA 021500Z 17003MPS 9999 BKN100 25/05 Q1010 R23L/CLRD65 NOSIG
Conditions at: UAAA (ALMA-ATA , KZ) observed 1500 UTC 02 June 2020
Temperature: 25.0°C (77°F)
Dewpoint: 5.0°C (41°F) [RH = 28%]
Pressure (altimeter): 29.82 inches Hg (1010.0 mb)
Winds: from the S (170 degrees) at 7 MPH (6 knots; 3.1 m/s)
Visibility: 6 or more miles (10+ km)
Ceiling: 10000 feet AGL
Clouds: broken clouds at 10000 feet AGL
Weather: no significant weather observed at this time

METAR text: UAAA 021430Z 17003MPS 9999 SCT100 BKN200 26/06 Q1010 R23L/CLRD65 NOSIG
Conditions at: UAAA (ALMA-ATA , KZ) observed 1430 UTC 02 June 2020
Temperature: 26.0°C (79°F)
Dewpoint: 6.0°C (43°F) [RH = 28%]
Pressure (altimeter): 29.82 inches Hg (1010.0 mb)
Winds: from the S (170 degrees) at 7 MPH (6 knots; 3.1 m/s)
Visibility: 6 or more miles (10+ km)
Ceiling: 20000 feet AGL
Clouds: scattered clouds at 10000 feet AGL
broken clouds at 20000 feet AGL
Weather: no significant weather observed at this time

METAR text: UAAA 021400Z 19003MPS 9999 SCT100 BKN200 27/08 Q1010 R23L/CLRD65 NOSIG
Conditions at: UAAA (ALMA-ATA , KZ) observed 1400 UTC 02 June 2020
Temperature: 27.0°C (81°F)
Dewpoint: 8.0°C (46°F) [RH = 30%]
Pressure (altimeter): 29.82 inches Hg (1010.0 mb)
Winds: from the S (190 degrees) at 7 MPH (6 knots; 3.1 m/s)
Visibility: 6 or more miles (10+ km)
Ceiling: 20000 feet AGL
Clouds: scattered clouds at 10000 feet AGL
broken clouds at 20000 feet AGL
Weather: no significant weather observed at this time

METAR text: UAAA 021330Z 18003MPS 9999 FEW050CB SCT100 BKN200 27/09 Q1010 R23L/CLRD65 NOSIG
Conditions at: UAAA (ALMA-ATA , KZ) observed 1330 UTC 02 June 2020
Temperature: 27.0°C (81°F)
Dewpoint: 9.0°C (48°F) [RH = 32%]
Pressure (altimeter): 29.82 inches Hg (1010.0 mb)
Winds: from the S (180 degrees) at 7 MPH (6 knots; 3.1 m/s)
Visibility: 6 or more miles (10+ km)
Ceiling: 20000 feet AGL
Clouds: few clouds at 5000 feet AGL
scattered clouds at 10000 feet AGL
broken clouds at 20000 feet AGL
Weather: no significant weather observed at this time

METAR text: UAAA 021300Z 20002MPS 9999 SCT050CB BKN100 28/08 Q1010 R23L/CLRD65 NOSIG
Conditions at: UAAA (ALMA-ATA , KZ) observed 1300 UTC 02 June 2020
Temperature: 28.0°C (82°F)
Dewpoint: 8.0°C (46°F) [RH = 28%]
Pressure (altimeter): 29.82 inches Hg (1010.0 mb)
Winds: from the SSW (200 degrees) at 5 MPH (4 knots; 2.1 m/s)
Visibility: 6 or more miles (10+ km)
Ceiling: 10000 feet AGL
Clouds: scattered clouds at 5000 feet AGL
broken clouds at 10000 feet AGL
Weather: no significant weather observed at this time

METAR text: UAAA 021230Z 22003MPS 9999 FEW050CB SCT100 BKN200 30/06 Q1010 R23L/CLRD65 NOSIG
Conditions at: UAAA (ALMA-ATA , KZ) observed 1230 UTC 02 June 2020
Temperature: 30.0°C (86°F)
Dewpoint: 6.0°C (43°F) [RH = 22%]
Pressure (altimeter): 29.82 inches Hg (1010.0 mb)
Winds: from the SW (220 degrees) at 7 MPH (6 knots; 3.1 m/s)
Visibility: 6 or more miles (10+ km)
Ceiling: 20000 feet AGL
Clouds: few clouds at 5000 feet AGL
scattered clouds at 10000 feet AGL
broken clouds at 20000 feet AGL
Weather: no significant weather observed at this time

METAR text: UAAA 021200Z 22003MPS 9999 FEW050CB SCT100 BKN200 31/02 Q1010 R23L/CLRD65 NOSIG
Conditions at: UAAA (ALMA-ATA , KZ) observed 1200 UTC 02 June 2020
Temperature: 31.0°C (88°F)
Dewpoint: 2.0°C (36°F) [RH = 16%]
Pressure (altimeter): 29.82 inches Hg (1010.0 mb)
Winds: from the SW (220 degrees) at 7 MPH (6 knots; 3.1 m/s)
Visibility: 6 or more miles (10+ km)
Ceiling: 20000 feet AGL
Clouds: few clouds at 5000 feet AGL
scattered clouds at 10000 feet AGL
broken clouds at 20000 feet AGL
Weather: no significant weather observed at this time

METAR text: UAAA 021130Z 25004MPS 9999 FEW050CB SCT100 BKN200 32/05 Q1010 R23L/CLRD65 NOSIG
Conditions at: UAAA (ALMA-ATA , KZ) observed 1130 UTC 02 June 2020
Temperature: 32.0°C (90°F)
Dewpoint: 5.0°C (41°F) [RH = 18%]
Pressure (altimeter): 29.82 inches Hg (1010.0 mb)
Winds: from the WSW (250 degrees) at 9 MPH (8 knots; 4.1 m/s)
Visibility: 6 or more miles (10+ km)
Ceiling: 20000 feet AGL
Clouds: few clouds at 5000 feet AGL
scattered clouds at 10000 feet AGL
broken clouds at 20000 feet AGL
Weather: no significant weather observed at this time

METAR text: UAAA 021100Z 23003MPS 9999 SCT050CB BKN100 31/09 Q1010 R23L/CLRD65 NOSIG
Conditions at: UAAA (ALMA-ATA , KZ) observed 1100 UTC 02 June 2020
Temperature: 31.0°C (88°F)
Dewpoint: 9.0°C (48°F) [RH = 26%]
Pressure (altimeter): 29.82 inches Hg (1010.0 mb)
Winds: from the SW (230 degrees) at 7 MPH (6 knots; 3.1 m/s)
Visibility: 6 or more miles (10+ km)
Ceiling: 10000 feet AGL
Clouds: scattered clouds at 5000 feet AGL
broken clouds at 10000 feet AGL
Weather: no significant weather observed at this time

METAR text: UAAA 021030Z 20003MPS 150V230 9999 SCT050CB BKN100 31/06 Q1010 R23L/CLRD65 NOSIG
Conditions at: UAAA (ALMA-ATA , KZ) observed 1030 UTC 02 June 2020
Temperature: 31.0°C (88°F)
Dewpoint: 6.0°C (43°F) [RH = 21%]
Pressure (altimeter): 29.82 inches Hg (1010.0 mb)
Winds: from the SSW (200 degrees) at 7 MPH (6 knots; 3.1 m/s)
Visibility: 6 or more miles (10+ km)
Ceiling: 10000 feet AGL
Clouds: scattered clouds at 5000 feet AGL
broken clouds at 10000 feet AGL
Weather: no significant weather observed at this time

METAR text: UAAA 021000Z 20004MPS 150V240 9999 SCT050CB BKN100 32/06 Q1010 R23L/CLRD65 NOSIG
Conditions at: UAAA (ALMA-ATA , KZ) observed 1000 UTC 02 June 2020
Temperature: 32.0°C (90°F)
Dewpoint: 6.0°C (43°F) [RH = 20%]
Pressure (altimeter): 29.82 inches Hg (1010.0 mb)
Winds: from the SSW (200 degrees) at 9 MPH (8 knots; 4.1 m/s)
Visibility: 6 or more miles (10+ km)
Ceiling: 10000 feet AGL
Clouds: scattered clouds at 5000 feet AGL
broken clouds at 10000 feet AGL
Weather: no significant weather observed at this time

METAR text: UAAA 020930Z 20004MPS 170V240 9999 SCT050CB BKN100 31/08 Q1011 R23L/CLRD65 NOSIG
Conditions at: UAAA (ALMA-ATA , KZ) observed 0930 UTC 02 June 2020
Temperature: 31.0°C (88°F)
Dewpoint: 8.0°C (46°F) [RH = 24%]
Pressure (altimeter): 29.85 inches Hg (1011.0 mb)
Winds: from the SSW (200 degrees) at 9 MPH (8 knots; 4.1 m/s)
Visibility: 6 or more miles (10+ km)
Ceiling: 10000 feet AGL
Clouds: scattered clouds at 5000 feet AGL
broken clouds at 10000 feet AGL
Weather: no significant weather observed at this time

METAR text: UAAA 020900Z 21004MPS 170V240 9999 SCT050CB BKN100 31/06 Q1010 R23L/CLRD65 NOSIG
Conditions at: UAAA (ALMA-ATA , KZ) observed 0900 UTC 02 June 2020
Temperature: 31.0°C (88°F)
Dewpoint: 6.0°C (43°F) [RH = 21%]
Pressure (altimeter): 29.82 inches Hg (1010.0 mb)
Winds: from the SSW (210 degrees) at 9 MPH (8 knots; 4.1 m/s)
Visibility: 6 or more miles (10+ km)
Ceiling: 10000 feet AGL
Clouds: scattered clouds at 5000 feet AGL
broken clouds at 10000 feet AGL
Weather: no significant weather observed at this time

METAR text: UAAA 020830Z 20005MPS 170V230 9999 SCT050CB BKN100 31/07 Q1010 R23L/CLRD65 NOSIG
Conditions at: UAAA (ALMA-ATA , KZ) observed 0830 UTC 02 June 2020
Temperature: 31.0°C (88°F)
Dewpoint: 7.0°C (45°F) [RH = 22%]
Pressure (altimeter): 29.82 inches Hg (1010.0 mb)
Winds: from the SSW (200 degrees) at 12 MPH (10 knots; 5.1 m/s)
Visibility: 6 or more miles (10+ km)
Ceiling: 10000 feet AGL
Clouds: scattered clouds at 5000 feet AGL
broken clouds at 10000 feet AGL
Weather: no significant weather observed at this time

METAR text: UAAA 020800Z 20006MPS 160V230 9999 SCT050CB BKN100 31/08 Q1010 R23L/CLRD65 NOSIG
Conditions at: UAAA (ALMA-ATA , KZ) observed 0800 UTC 02 June 2020
Temperature: 31.0°C (88°F)
Dewpoint: 8.0°C (46°F) [RH = 24%]
Pressure (altimeter): 29.82 inches Hg (1010.0 mb)
Winds: from the SSW (200 degrees) at 14 MPH (12 knots; 6.2 m/s)
Visibility: 6 or more miles (10+ km)
Ceiling: 10000 feet AGL
Clouds: scattered clouds at 5000 feet AGL
broken clouds at 10000 feet AGL
Weather: no significant weather observed at this time

METAR text: UAAA 020730Z 23005MPS 190V250 9999 SCT050CB BKN100 30/10 Q1010 R23L/CLRD65 NOSIG
Conditions at: UAAA (ALMA-ATA , KZ) observed 0730 UTC 02 June 2020
Temperature: 30.0°C (86°F)
Dewpoint: 10.0°C (50°F) [RH = 29%]
Pressure (altimeter): 29.82 inches Hg (1010.0 mb)
Winds: from the SW (230 degrees) at 12 MPH (10 knots; 5.1 m/s)
Visibility: 6 or more miles (10+ km)
Ceiling: 10000 feet AGL
Clouds: scattered clouds at 5000 feet AGL
broken clouds at 10000 feet AGL
Weather: no significant weather observed at this time

METAR text: UAAA 020700Z 24004MPS 200V280 9999 SCT050CB BKN100 30/04 Q1011 R23L/CLRD65 NOSIG
Conditions at: UAAA (ALMA-ATA , KZ) observed 0700 UTC 02 June 2020
Temperature: 30.0°C (86°F)
Dewpoint: 4.0°C (39°F) [RH = 19%]
Pressure (altimeter): 29.85 inches Hg (1011.0 mb)
Winds: from the WSW (240 degrees) at 9 MPH (8 knots; 4.1 m/s)
Visibility: 6 or more miles (10+ km)
Ceiling: 10000 feet AGL
Clouds: scattered clouds at 5000 feet AGL
broken clouds at 10000 feet AGL
Weather: no significant weather observed at this time

METAR text: UAAA 020630Z 28006MPS 9999 SCT050CB BKN100 29/03 Q1010 R23L/CLRD65 NOSIG
Conditions at: UAAA (ALMA-ATA , KZ) observed 0630 UTC 02 June 2020
Temperature: 29.0°C (84°F)
Dewpoint: 3.0°C (37°F) [RH = 19%]
Pressure (altimeter): 29.82 inches Hg (1010.0 mb)
Winds: from the W (280 degrees) at 14 MPH (12 knots; 6.2 m/s)
Visibility: 6 or more miles (10+ km)
Ceiling: 10000 feet AGL
Clouds: scattered clouds at 5000 feet AGL
broken clouds at 10000 feet AGL
Weather: no significant weather observed at this time

METAR text: UAAA 020600Z 27005MPS 9999 FEW050CB BKN100 30/07 Q1010 R23L/CLRD65 NOSIG
Conditions at: UAAA (ALMA-ATA , KZ) observed 0600 UTC 02 June 2020
Temperature: 30.0°C (86°F)
Dewpoint: 7.0°C (45°F) [RH = 24%]
Pressure (altimeter): 29.82 inches Hg (1010.0 mb)
Winds: from the W (270 degrees) at 12 MPH (10 knots; 5.1 m/s)
Visibility: 6 or more miles (10+ km)
Ceiling: 10000 feet AGL
Clouds: few clouds at 5000 feet AGL
broken clouds at 10000 feet AGL
Weather: no significant weather observed at this time

METAR text: UAAA 020530Z 27005MPS 9999 FEW050CB BKN100 30/09 Q1010 R23L/CLRD65 NOSIG
Conditions at: UAAA (ALMA-ATA , KZ) observed 0530 UTC 02 June 2020
Temperature: 30.0°C (86°F)
Dewpoint: 9.0°C (48°F) [RH = 27%]
Pressure (altimeter): 29.82 inches Hg (1010.0 mb)
Winds: from the W (270 degrees) at 12 MPH (10 knots; 5.1 m/s)
Visibility: 6 or more miles (10+ km)
Ceiling: 10000 feet AGL
Clouds: few clouds at 5000 feet AGL
broken clouds at 10000 feet AGL
Weather: no significant weather observed at this time

METAR text: UAAA 020500Z 27005MPS 9999 FEW050 BKN100 29/09 Q1010 R23L/CLRD65 NOSIG
Conditions at: UAAA (ALMA-ATA , KZ) observed 0500 UTC 02 June 2020
Temperature: 29.0°C (84°F)
Dewpoint: 9.0°C (48°F) [RH = 29%]
Pressure (altimeter): 29.82 inches Hg (1010.0 mb)
Winds: from the W (270 degrees) at 12 MPH (10 knots; 5.1 m/s)
Visibility: 6 or more miles (10+ km)
Ceiling: 10000 feet AGL
Clouds: few clouds at 5000 feet AGL
broken clouds at 10000 feet AGL
Weather: no significant weather observed at this time

Forecast for: UAAA (ALMA-ATA , KZ)
Text: TAF UAAA 031100Z 0312/0412 16003MPS 9999 SCT050CB BKN100 TX35/0409Z TN17/0401Z
Forecast period: 1200 UTC 03 June 2020 to 0300 UTC 04 June 2020
Forecast type: FROM: standard forecast or significant change
Winds: from the SSE (160 degrees) at 7 MPH (6 knots; 3.1 m/s)
Visibility: 6 or more miles 10+ km)
Ceiling: 10000 feet AGL
Clouds: scattered clouds at 5000 feet AGL
broken clouds at 10000 feet AGL
Weather: no significant weather forecast for this period
Text: TEMPO 0312/0314 04004MPS
Forecast period: 1200 to 1400 UTC 03 June 2020
Forecast type: TEMPORARY: The following changes expected for less than half the time period
Winds: from the NE (40 degrees) at 9 MPH (8 knots; 4.1 m/s)
Visibility: missing
Ceiling: unknown
Clouds: missing
Weather: no significant weather forecast for this period
Text: TEMPO 0314/0322 21003MPS
Forecast period: 1400 to 2200 UTC 03 June 2020
Forecast type: TEMPORARY: The following changes expected for less than half the time period
Winds: from the SSW (210 degrees) at 7 MPH (6 knots; 3.1 m/s)
Visibility: missing
Ceiling: unknown
Clouds: missing
Weather: no significant weather forecast for this period
Text: BECMG 0403/0404 04003G08MPS
Forecast period: 0300 to 1200 UTC 04 June 2020
Forecast type: BECOMING: Conditions expected to become as follows by 0400 UTC 04 June 2020
Winds: from the NE (40 degrees) at 7 MPH (6 knots; 3.1 m/s)
gusting to 18 MPH (16 knots; 8.2 m/s)
Visibility: 6 or more miles 10+ km)
Ceiling: 10000 feet AGL
Clouds: scattered clouds at 5000 feet AGL
broken clouds at 10000 feet AGL
Weather: no significant weather forecast for this period
Text: TEMPO 0403/0410 32003MPS
Forecast period: 0300 to 1000 UTC 04 June 2020
Forecast type: TEMPORARY: The following changes expected for less than half the time period
Winds: from the NW (320 degrees) at 7 MPH (6 knots; 3.1 m/s)
Visibility: missing
Ceiling: unknown
Clouds: missing
Weather: no significant weather forecast for this period